Time;durP1;ratioP1;P1;durP2;ratioP2;P2;SDS_P1;SDS_P2;PMS_P1;PMS_P2;Temp;Humidity;BMP_temperature;BMP_pressure;BME280_temperature;BME280_humidity;BME280_pressure;Samples;Min_cycle;Max_cycle;Signal;HPM_P1;HPM_P2
2023/07/25 00:00:09;;;;;;;13.03;6.70;;;15.30;99.90;;;;;;4825714;29;20423;-90
2023/07/25 00:02:35;;;;;;;11.53;7.10;;;15.30;99.90;;;;;;4826522;29;20462;-91
2023/07/25 00:05:02;;;;;;;12.10;6.60;;;15.20;99.90;;;;;;4826773;29;20427;-90
2023/07/25 00:07:27;;;;;;;12.33;7.07;;;15.20;99.90;;;;;;4826401;29;20635;-92
2023/07/25 00:09:53;;;;;;;17.70;7.77;;;15.20;99.90;;;;;;4826594;29;20418;-91
2023/07/25 00:12:18;;;;;;;14.90;6.97;;;15.10;99.90;;;;;;4825239;29;20206;-91
2023/07/25 00:14:44;;;;;;;10.73;5.93;;;15.10;99.90;;;;;;4825251;29;20189;-91
2023/07/25 00:17:10;;;;;;;10.63;5.17;;;15.00;99.90;;;;;;4826789;29;20268;-90
2023/07/25 00:19:35;;;;;;;12.23;6.47;;;15.00;99.90;;;;;;4825006;29;20194;-91
2023/07/25 00:22:01;;;;;;;8.60;5.27;;;15.00;99.90;;;;;;4826478;29;20290;-91
2023/07/25 00:24:27;;;;;;;8.87;5.37;;;14.90;99.90;;;;;;4826961;29;20186;-91
2023/07/25 00:26:52;;;;;;;10.17;5.10;;;14.90;99.90;;;;;;4810327;29;20276;-91
2023/07/25 00:29:18;;;;;;;9.07;5.40;;;14.80;99.90;;;;;;4825095;29;20194;-91
2023/07/25 00:31:46;;;;;;;7.60;5.40;;;14.70;99.90;;;;;;4825119;29;20244;-91
2023/07/25 00:34:11;;;;;;;9.13;4.90;;;14.80;99.90;;;;;;4825279;29;20196;-91
2023/07/25 00:36:37;;;;;;;14.27;5.80;;;14.70;99.90;;;;;;4825155;29;20431;-91
2023/07/25 00:39:03;;;;;;;9.97;5.70;;;14.70;99.90;;;;;;4825134;29;20220;-91
2023/07/25 00:41:28;;;;;;;7.53;5.33;;;14.70;99.90;;;;;;4825254;29;20217;-91
2023/07/25 00:43:54;;;;;;;8.37;4.80;;;14.70;99.90;;;;;;4826294;29;20182;-91
2023/07/25 00:46:20;;;;;;;11.37;5.17;;;14.70;99.90;;;;;;4826162;29;20205;-91
2023/07/25 00:48:46;;;;;;;17.73;5.70;;;14.70;99.90;;;;;;4824787;29;20221;-91
2023/07/25 00:51:12;;;;;;;8.20;5.30;;;14.60;99.90;;;;;;4826389;29;20475;-91
2023/07/25 00:53:38;;;;;;;12.03;5.50;;;14.70;99.90;;;;;;4825804;29;20189;-91
2023/07/25 00:56:05;;;;;;;7.70;4.90;;;14.70;99.90;;;;;;4825143;29;20423;-91
2023/07/25 00:58:31;;;;;;;11.00;6.00;;;14.70;99.90;;;;;;4824462;29;20450;-92
2023/07/25 01:01:05;;;;;;;7.33;5.10;;;14.80;99.90;;;;;;4825016;29;20534;-91
2023/07/25 01:03:36;;;;;;;13.23;5.90;;;14.70;99.90;;;;;;4825506;29;20192;-92
2023/07/25 01:06:03;;;;;;;10.23;5.13;;;14.70;99.90;;;;;;4824741;29;20426;-91
2023/07/25 01:08:29;;;;;;;11.20;5.50;;;14.60;99.90;;;;;;4824782;29;21012;-91
2023/07/25 01:10:54;;;;;;;17.63;7.30;;;14.60;99.90;;;;;;4825662;29;20451;-91
2023/07/25 01:13:21;;;;;;;8.83;5.30;;;14.50;99.90;;;;;;4826164;29;20205;-91
2023/07/25 01:15:55;;;;;;;9.43;5.20;;;14.50;99.90;;;;;;4824552;29;20550;-91
2023/07/25 01:18:21;;;;;;;11.57;6.03;;;14.40;99.90;;;;;;4824390;29;20426;-91
2023/07/25 01:20:47;;;;;;;12.77;5.60;;;14.40;99.90;;;;;;4824392;29;20426;-91
2023/07/25 01:23:14;;;;;;;12.83;6.30;;;14.40;99.90;;;;;;4825331;29;20223;-91
2023/07/25 01:25:39;;;;;;;10.67;6.37;;;14.40;99.90;;;;;;4825562;29;20489;-91
2023/07/25 01:28:05;;;;;;;11.17;5.60;;;14.30;99.90;;;;;;4825806;29;20419;-91
2023/07/25 01:30:31;;;;;;;11.40;6.10;;;14.20;99.90;;;;;;4823821;29;20217;-91
2023/07/25 01:32:57;;;;;;;7.20;6.43;;;14.20;99.90;;;;;;4823572;29;20190;-91
2023/07/25 01:35:23;;;;;;;15.70;5.30;;;14.10;99.90;;;;;;4825889;29;20269;-91
2023/07/25 01:37:48;;;;;;;8.67;4.73;;;14.10;99.90;;;;;;4825480;29;20220;-91
2023/07/25 01:40:14;;;;;;;8.10;5.67;;;14.00;99.90;;;;;;4825689;29;20525;-92
2023/07/25 01:42:40;;;;;;;7.00;5.57;;;14.10;99.90;;;;;;4825687;29;20232;-91
2023/07/25 01:45:06;;;;;;;12.50;5.17;;;14.00;99.90;;;;;;4824433;29;20190;-91
2023/07/25 01:47:34;;;;;;;11.47;5.20;;;13.90;99.90;;;;;;4824296;29;20193;-91
2023/07/25 01:49:59;;;;;;;10.60;4.77;;;13.90;99.90;;;;;;4824109;29;20454;-91
2023/07/25 01:52:25;;;;;;;13.10;5.47;;;13.90;99.90;;;;;;4825325;29;20904;-91
2023/07/25 01:54:52;;;;;;;11.43;5.00;;;13.90;99.90;;;;;;4824055;29;20287;-91
2023/07/25 01:57:18;;;;;;;16.00;6.90;;;13.90;99.90;;;;;;4825118;29;20527;-91
2023/07/25 01:59:43;;;;;;;13.60;4.83;;;13.90;99.90;;;;;;4824810;29;20430;-91
2023/07/25 02:02:09;;;;;;;11.97;5.90;;;13.80;99.90;;;;;;4825344;29;20225;-91
2023/07/25 02:04:35;;;;;;;7.03;4.67;;;13.70;99.90;;;;;;4823758;29;20669;-93
2023/07/25 02:07:00;;;;;;;16.67;5.87;;;13.70;99.90;;;;;;4808652;29;20255;-91
2023/07/25 02:09:26;;;;;;;8.20;5.17;;;13.60;99.90;;;;;;4825009;29;20189;-91
2023/07/25 02:11:51;;;;;;;8.60;4.80;;;13.50;99.90;;;;;;4823612;29;20197;-91
2023/07/25 02:14:17;;;;;;;12.93;5.57;;;13.50;99.90;;;;;;4825107;29;20185;-91
2023/07/25 02:16:43;;;;;;;10.07;5.70;;;13.50;99.90;;;;;;4823876;29;20249;-91
2023/07/25 02:19:08;;;;;;;9.57;5.40;;;13.50;99.90;;;;;;4825026;29;20186;-91
2023/07/25 02:21:34;;;;;;;7.37;5.37;;;13.50;99.90;;;;;;4825296;29;20213;-91
2023/07/25 02:24:00;;;;;;;17.93;6.10;;;13.50;99.90;;;;;;4825893;29;20200;-92
2023/07/25 02:26:26;;;;;;;11.53;5.53;;;13.50;99.90;;;;;;4809229;29;20185;-91
2023/07/25 02:28:51;;;;;;;6.53;5.30;;;13.40;99.90;;;;;;4823369;29;20431;-91
2023/07/25 02:31:18;;;;;;;9.73;6.23;;;13.40;99.90;;;;;;4823631;29;20236;-91
2023/07/25 02:33:43;;;;;;;5.90;5.07;;;13.40;99.90;;;;;;4824749;29;20185;-91
2023/07/25 02:36:09;;;;;;;9.10;5.43;;;13.50;99.90;;;;;;4824778;29;20430;-91
2023/07/25 02:38:35;;;;;;;18.40;6.00;;;13.50;99.90;;;;;;4823909;29;20640;-91
2023/07/25 02:41:00;;;;;;;9.90;6.03;;;13.50;99.90;;;;;;4823262;29;20185;-91
2023/07/25 02:43:26;;;;;;;11.00;6.30;;;13.50;99.90;;;;;;4823463;29;20229;-91
2023/07/25 02:45:52;;;;;;;8.63;6.00;;;13.50;99.90;;;;;;4826192;29;20185;-91
2023/07/25 02:48:18;;;;;;;10.97;6.40;;;13.50;99.90;;;;;;4826581;29;20189;-91
2023/07/25 02:50:44;;;;;;;16.50;7.00;;;13.50;99.90;;;;;;4827877;29;20450;-91
2023/07/25 02:53:10;;;;;;;12.40;6.90;;;13.50;99.90;;;;;;4826905;29;20466;-91
2023/07/25 02:55:37;;;;;;;14.30;6.03;;;13.50;99.90;;;;;;4826924;29;20516;-91
2023/07/25 02:58:02;;;;;;;8.47;6.13;;;13.50;99.90;;;;;;4827909;29;20185;-91
2023/07/25 03:00:28;;;;;;;12.90;6.43;;;13.50;99.90;;;;;;4827917;29;20415;-91
2023/07/25 03:02:53;;;;;;;10.90;7.23;;;13.60;99.90;;;;;;4826398;29;20586;-91
2023/07/25 03:05:19;;;;;;;14.60;6.43;;;13.60;99.90;;;;;;4826765;29;20193;-92
2023/07/25 03:07:45;;;;;;;11.00;7.07;;;13.70;99.90;;;;;;4827601;29;20643;-92
2023/07/25 03:10:11;;;;;;;13.83;6.40;;;13.70;99.90;;;;;;4827953;29;20193;-92
2023/07/25 03:12:36;;;;;;;12.73;7.50;;;13.70;99.90;;;;;;4826160;29;20461;-92
2023/07/25 03:15:05;;;;;;;10.93;7.30;;;13.70;99.90;;;;;;4826284;29;20194;-92
2023/07/25 03:17:31;;;;;;;16.70;6.80;;;13.70;99.90;;;;;;4827883;29;20189;-91
2023/07/25 03:19:57;;;;;;;11.97;5.60;;;13.70;99.90;;;;;;4827753;29;20410;-92
2023/07/25 03:22:23;;;;;;;8.23;6.20;;;13.70;99.90;;;;;;4826502;29;20526;-91
2023/07/25 03:24:49;;;;;;;15.70;8.07;;;13.70;99.90;;;;;;4826617;29;20557;-91
2023/07/25 03:27:18;;;;;;;13.23;6.90;;;13.70;99.90;;;;;;4827691;29;20178;-92
2023/07/25 03:29:44;;;;;;;10.27;6.07;;;13.70;99.90;;;;;;4826214;29;20499;-92
2023/07/25 03:32:09;;;;;;;13.77;7.03;;;13.70;99.90;;;;;;4826171;29;20905;-92
2023/07/25 03:34:35;;;;;;;6.93;5.73;;;13.70;99.90;;;;;;4827288;29;20419;-92
2023/07/25 03:37:01;;;;;;;9.97;5.60;;;13.70;99.90;;;;;;4827058;29;20221;-92
2023/07/25 03:39:26;;;;;;;17.70;6.47;;;13.70;99.90;;;;;;4826082;29;20190;-92
2023/07/25 03:41:52;;;;;;;15.83;6.80;;;13.70;99.90;;;;;;4825922;29;20559;-92
2023/07/25 03:44:19;;;;;;;11.97;6.70;;;13.70;99.90;;;;;;4811191;29;20196;-92
2023/07/25 03:46:44;;;;;;;14.50;5.90;;;13.70;99.90;;;;;;4827353;29;20177;-92
2023/07/25 03:49:11;;;;;;;12.33;6.30;;;13.70;99.90;;;;;;4827622;29;20419;-92
2023/07/25 03:51:37;;;;;;;14.00;6.37;;;13.70;99.90;;;;;;4827518;29;20189;-92
2023/07/25 03:54:06;;;;;;;10.33;5.90;;;13.70;99.90;;;;;;4826986;29;20435;-92
2023/07/25 03:56:32;;;;;;;9.30;5.80;;;13.80;99.90;;;;;;4826864;29;20422;-91
2023/07/25 03:58:58;;;;;;;8.23;5.50;;;13.90;99.90;;;;;;4827274;29;20411;-92
2023/07/25 04:01:24;;;;;;;13.33;6.70;;;13.80;99.90;;;;;;4826271;29;20474;-92
2023/07/25 04:03:50;;;;;;;10.93;5.60;;;13.80;99.90;;;;;;4826193;29;20423;-92
2023/07/25 04:06:15;;;;;;;11.93;6.10;;;13.80;99.90;;;;;;4825837;29;20585;-92
2023/07/25 04:08:41;;;;;;;13.50;7.83;;;13.80;99.90;;;;;;4826619;29;20190;-92
2023/07/25 04:11:07;;;;;;;18.27;6.73;;;13.80;99.90;;;;;;4811055;29;20520;-92
2023/07/25 04:13:32;;;;;;;9.17;6.63;;;13.80;99.90;;;;;;4826810;29;20217;-92
2023/07/25 04:15:58;;;;;;;10.53;7.80;;;13.80;99.90;;;;;;4829329;29;20177;-92
2023/07/25 04:18:23;;;;;;;14.00;6.50;;;13.80;99.90;;;;;;4827137;29;20186;-92
2023/07/25 04:20:49;;;;;;;13.63;6.70;;;13.80;99.90;;;;;;4826117;29;20201;-92
2023/07/25 04:23:17;;;;;;;14.87;6.53;;;13.90;99.90;;;;;;4826707;29;20261;-92
2023/07/25 04:25:43;;;;;;;13.17;7.20;;;13.90;99.90;;;;;;4826570;29;20186;-92
2023/07/25 04:28:09;;;;;;;9.93;6.27;;;13.90;99.90;;;;;;4825703;29;20492;-92
2023/07/25 04:30:37;;;;;;;11.67;6.90;;;13.90;99.90;;;;;;4825270;29;20196;-92
2023/07/25 04:33:03;;;;;;;13.20;7.50;;;13.90;99.90;;;;;;4826321;29;20789;-91
2023/07/25 04:35:28;;;;;;;16.60;7.17;;;13.90;99.90;;;;;;4825262;29;20427;-92
2023/07/25 04:37:54;;;;;;;14.73;6.53;;;14.00;99.90;;;;;;4826357;29;20196;-92
2023/07/25 04:40:19;;;;;;;7.33;6.50;;;13.90;99.90;;;;;;4825480;29;20276;-92
2023/07/25 04:42:45;;;;;;;15.33;7.03;;;14.00;99.90;;;;;;4824669;29;20235;-93
2023/07/25 04:45:11;;;;;;;15.17;6.47;;;14.10;99.90;;;;;;4826561;29;20193;-92
2023/07/25 04:47:36;;;;;;;18.47;8.70;;;14.10;99.90;;;;;;4826559;29;20181;-92
2023/07/25 04:50:02;;;;;;;8.80;6.10;;;14.10;99.90;;;;;;4826560;29;20468;-92
2023/07/25 04:52:28;;;;;;;9.60;6.97;;;14.10;99.90;;;;;;4826409;29;20185;-92
2023/07/25 04:54:58;;;;;;;10.70;6.67;;;14.10;99.90;;;;;;4825029;29;20487;-92
2023/07/25 04:57:24;;;;;;;8.77;7.30;;;14.20;99.90;;;;;;4826881;29;20264;-92
2023/07/25 04:59:50;;;;;;;12.60;7.27;;;14.30;99.90;;;;;;4826506;29;20448;-92
2023/07/25 05:02:17;;;;;;;20.93;7.13;;;14.40;99.90;;;;;;4810642;29;20478;-92
2023/07/25 05:04:42;;;;;;;14.10;7.20;;;14.50;99.90;;;;;;4826789;29;20182;-92
2023/07/25 05:07:08;;;;;;;12.27;6.70;;;14.40;99.90;;;;;;4825329;29;20775;-92
2023/07/25 05:09:33;;;;;;;9.07;6.80;;;14.50;99.90;;;;;;4826610;29;20185;-92
2023/07/25 05:11:59;;;;;;;9.07;6.70;;;14.60;99.90;;;;;;4826605;29;20190;-92
2023/07/25 05:14:25;;;;;;;10.43;6.47;;;14.50;99.90;;;;;;4826848;29;20217;-93
2023/07/25 05:16:50;;;;;;;9.30;7.57;;;14.50;99.90;;;;;;4827153;29;20181;-92
2023/07/25 05:19:16;;;;;;;8.40;7.47;;;14.60;99.90;;;;;;4827082;29;20178;-92
2023/07/25 05:21:42;;;;;;;13.53;7.73;;;14.60;99.90;;;;;;4825397;29;20289;-93
2023/07/25 05:24:08;;;;;;;14.00;8.03;;;14.60;99.90;;;;;;4826740;29;20211;-92
2023/07/25 05:26:33;;;;;;;17.67;7.60;;;14.60;99.90;;;;;;4826009;29;20190;-91
2023/07/25 05:28:59;;;;;;;16.40;8.90;;;14.50;99.90;;;;;;4825776;29;20442;-92
2023/07/25 05:31:24;;;;;;;14.90;8.17;;;14.40;99.90;;;;;;4825263;29;20264;-91
2023/07/25 05:33:50;;;;;;;10.07;7.67;;;14.50;99.90;;;;;;4827433;29;20281;-92
2023/07/25 05:36:16;;;;;;;10.87;8.30;;;14.50;99.90;;;;;;4828989;29;20619;-92
2023/07/25 05:38:41;;;;;;;12.83;7.50;;;14.60;99.90;;;;;;4826879;29;20255;-91
2023/07/25 05:41:07;;;;;;;12.20;7.23;;;14.50;99.90;;;;;;4827778;29;20635;-92
2023/07/25 05:43:32;;;;;;;11.73;7.63;;;14.60;99.90;;;;;;4826718;29;20623;-91
2023/07/25 05:45:59;;;;;;;14.30;7.43;;;14.60;99.90;;;;;;4826214;29;20197;-91
2023/07/25 05:48:24;;;;;;;17.10;8.80;;;14.70;99.90;;;;;;4810052;29;20185;-91
2023/07/25 05:50:51;;;;;;;14.80;8.33;;;14.80;99.90;;;;;;4827694;29;20904;-91
2023/07/25 05:53:18;;;;;;;16.70;8.10;;;14.90;99.90;;;;;;4826332;29;20604;-91
2023/07/25 05:55:45;;;;;;;12.23;8.07;;;14.90;99.90;;;;;;4826850;29;20386;-91
2023/07/25 05:58:14;;;;;;;12.73;8.37;;;15.00;99.90;;;;;;4826443;29;20415;-91
2023/07/25 06:00:41;;;;;;;14.23;7.30;;;15.10;99.90;;;;;;4826637;29;20463;-91
2023/07/25 06:03:09;;;;;;;9.37;7.57;;;15.00;99.90;;;;;;4825893;29;20544;-92
2023/07/25 06:05:34;;;;;;;15.23;8.33;;;14.90;99.90;;;;;;4827622;29;20457;-92
2023/07/25 06:08:00;;;;;;;17.00;8.30;;;14.90;99.90;;;;;;4826432;29;20435;-92
2023/07/25 06:10:25;;;;;;;11.57;7.57;;;14.80;99.90;;;;;;4826187;29;20591;-92
2023/07/25 06:12:51;;;;;;;18.20;7.40;;;14.80;99.90;;;;;;4827150;29;20561;-92
2023/07/25 06:15:17;;;;;;;9.83;6.90;;;14.80;99.90;;;;;;4827094;29;20322;-92
2023/07/25 06:17:42;;;;;;;12.83;6.40;;;14.90;99.90;;;;;;4826528;29;20186;-92
2023/07/25 06:20:09;;;;;;;12.33;6.30;;;14.80;99.90;;;;;;4825297;29;20195;-92
2023/07/25 06:22:34;;;;;;;11.90;7.40;;;14.90;99.90;;;;;;4827174;29;20248;-92
2023/07/25 06:25:01;;;;;;;11.60;6.93;;;14.90;99.90;;;;;;4824581;29;20459;-92
2023/07/25 06:27:27;;;;;;;8.43;7.10;;;14.90;99.90;;;;;;4826912;29;20627;-92
2023/07/25 06:29:52;;;;;;;15.67;6.50;;;14.90;99.90;;;;;;4825031;29;20468;-91
2023/07/25 06:32:18;;;;;;;10.77;7.57;;;14.70;99.90;;;;;;4826779;29;20282;-93
2023/07/25 06:34:43;;;;;;;8.50;6.70;;;14.70;99.90;;;;;;4826138;29;20250;-91
2023/07/25 06:37:09;;;;;;;18.60;7.40;;;14.80;99.90;;;;;;4827012;29;20546;-91
2023/07/25 06:39:35;;;;;;;9.80;6.80;;;14.80;99.90;;;;;;4826760;29;20190;-91
2023/07/25 06:42:00;;;;;;;11.23;6.70;;;14.80;99.90;;;;;;4826584;29;20217;-85
2023/07/25 06:44:26;;;;;;;13.63;6.17;;;14.90;99.90;;;;;;4825848;29;20224;-86
2023/07/25 06:46:51;;;;;;;8.57;6.30;;;14.90;99.90;;;;;;4825451;29;20319;-87
2023/07/25 06:49:17;;;;;;;13.53;6.77;;;14.90;99.90;;;;;;4826099;29;20192;-86
2023/07/25 06:51:42;;;;;;;8.83;6.20;;;15.00;99.90;;;;;;4825812;29;20197;-86
2023/07/25 06:54:08;;;;;;;10.60;5.20;;;15.00;99.90;;;;;;4824073;29;20193;-86
2023/07/25 06:56:34;;;;;;;16.17;6.50;;;15.20;99.90;;;;;;4825513;29;20193;-86
2023/07/25 06:58:59;;;;;;;9.50;5.93;;;15.20;99.90;;;;;;4825042;29;20192;-86
2023/07/25 07:01:28;;;;;;;11.97;5.60;;;15.20;99.90;;;;;;4823801;29;20272;-86
2023/07/25 07:03:56;;;;;;;8.90;5.17;;;15.20;99.90;;;;;;4824444;29;20193;-87
2023/07/25 07:06:22;;;;;;;8.10;5.40;;;15.30;99.90;;;;;;4825887;29;20397;-85
2023/07/25 07:08:48;;;;;;;11.07;6.43;;;15.40;99.90;;;;;;4825971;29;20442;-86
2023/07/25 07:11:13;;;;;;;9.60;6.13;;;15.50;99.90;;;;;;4825123;29;20190;-86
2023/07/25 07:13:39;;;;;;;9.53;6.10;;;15.70;99.90;;;;;;4825581;29;20669;-85
2023/07/25 07:16:04;;;;;;;11.70;6.20;;;15.90;99.90;;;;;;4809059;29;20194;-86
2023/07/25 07:18:30;;;;;;;9.10;5.40;;;15.90;99.90;;;;;;4824301;29;20647;-86
2023/07/25 07:20:56;;;;;;;13.90;6.20;;;16.00;99.90;;;;;;4825344;29;20548;-86
2023/07/25 07:23:21;;;;;;;11.13;5.50;;;16.10;99.90;;;;;;4825537;29;20221;-86
2023/07/25 07:25:47;;;;;;;9.47;5.20;;;16.10;99.90;;;;;;4825077;29;20185;-86
2023/07/25 07:28:13;;;;;;;8.30;5.23;;;16.30;99.90;;;;;;4825025;29;20204;-86
2023/07/25 07:30:38;;;;;;;10.90;6.17;;;16.40;99.90;;;;;;4823418;29;20193;-86
2023/07/25 07:33:04;;;;;;;7.60;6.23;;;16.40;99.90;;;;;;4828178;29;20217;-86
2023/07/25 07:35:30;;;;;;;8.00;6.27;;;16.40;99.90;;;;;;4828133;29;20192;-86
2023/07/25 07:37:55;;;;;;;10.50;5.67;;;16.40;99.90;;;;;;4828709;29;20189;-87
2023/07/25 07:40:21;;;;;;;9.87;5.63;;;16.40;99.90;;;;;;4829022;29;20211;-86
2023/07/25 07:42:47;;;;;;;18.63;5.70;;;16.50;99.90;;;;;;4826911;29;20243;-86
2023/07/25 07:45:12;;;;;;;7.23;4.93;;;16.60;99.90;;;;;;4828547;29;20427;-87
2023/07/25 07:47:38;;;;;;;7.90;5.00;;;16.60;99.90;;;;;;4828405;29;20562;-86
2023/07/25 07:50:04;;;;;;;10.33;5.33;;;16.80;99.90;;;;;;4828600;29;20322;-87
2023/07/25 07:52:29;;;;;;;13.17;5.47;;;16.80;99.90;;;;;;4827176;29;20293;-86
2023/07/25 07:54:56;;;;;;;15.73;5.70;;;17.00;99.90;;;;;;4811452;29;20438;-88
2023/07/25 07:57:21;;;;;;;11.53;5.63;;;17.00;99.90;;;;;;4827942;29;20193;-87
2023/07/25 07:59:47;;;;;;;12.13;7.27;;;17.30;99.90;;;;;;4828816;29;20405;-86
2023/07/25 08:02:12;;;;;;;11.33;8.17;;;17.40;99.90;;;;;;4827542;29;20245;-87
2023/07/25 08:04:38;;;;;;;17.10;8.70;;;17.40;99.90;;;;;;4828938;29;20246;-87
2023/07/25 08:07:05;;;;;;;16.60;9.10;;;17.40;99.90;;;;;;4827915;29;20186;-87
2023/07/25 08:09:30;;;;;;;16.47;7.87;;;17.40;99.90;;;;;;4827328;29;20565;-87
2023/07/25 08:11:56;;;;;;;12.70;8.07;;;17.50;99.90;;;;;;4826815;29;20416;-89
2023/07/25 08:14:21;;;;;;;10.73;7.60;;;17.50;99.90;;;;;;4828379;29;20192;-87
2023/07/25 08:16:47;;;;;;;11.97;9.00;;;17.60;99.90;;;;;;4828136;29;20189;-85
2023/07/25 08:19:12;;;;;;;10.97;8.50;;;17.70;99.90;;;;;;4828005;29;20190;-85
2023/07/25 08:21:38;;;;;;;10.00;9.00;;;17.90;99.90;;;;;;4827829;29;20286;-85
2023/07/25 08:24:04;;;;;;;13.60;9.47;;;17.90;99.90;;;;;;4827674;29;20204;-86
2023/07/25 08:26:30;;;;;;;13.53;9.57;;;18.00;99.90;;;;;;4827656;29;20182;-85
2023/07/25 08:28:55;;;;;;;12.83;10.57;;;18.00;99.90;;;;;;4827330;29;20450;-85
2023/07/25 08:31:21;;;;;;;11.03;8.83;;;18.00;99.90;;;;;;4827389;29;20265;-86
2023/07/25 08:33:47;;;;;;;11.83;9.90;;;17.90;99.90;;;;;;4827756;29;20193;-85
2023/07/25 08:36:12;;;;;;;13.23;9.20;;;17.90;99.90;;;;;;4828882;29;20196;-85
2023/07/25 08:38:41;;;;;;;15.60;9.27;;;18.30;99.90;;;;;;4827174;29;20453;-85
2023/07/25 08:41:16;;;;;;;14.83;8.73;;;18.20;99.90;;;;;;4826293;29;20645;-86
2023/07/25 08:43:43;;;;;;;10.00;7.83;;;18.50;99.90;;;;;;4827629;29;20471;-86
2023/07/25 08:46:13;;;;;;;17.20;8.80;;;18.50;99.90;;;;;;4827506;29;20401;-86
2023/07/25 08:48:41;;;;;;;10.00;8.70;;;18.50;99.90;;;;;;4827496;29;20749;-85
2023/07/25 08:51:16;;;;;;;7.60;6.80;;;18.60;99.90;;;;;;4827206;29;20409;-86
2023/07/25 08:53:55;;;;;;;10.87;5.03;;;19.00;99.90;;;;;;4826187;29;20408;-86
2023/07/25 08:56:22;;;;;;;6.70;3.87;;;19.00;99.90;;;;;;4826502;29;20761;-86
2023/07/25 08:58:48;;;;;;;12.43;3.57;;;18.70;99.90;;;;;;4825685;29;20427;-86
2023/07/25 09:01:14;;;;;;;5.00;3.50;;;18.50;99.90;;;;;;4826608;29;20419;-86
2023/07/25 09:03:41;;;;;;;7.10;4.00;;;18.50;99.90;;;;;;4827412;29;20844;-87
2023/07/25 09:06:09;;;;;;;5.60;3.57;;;18.50;99.90;;;;;;4826902;29;20276;-87
2023/07/25 09:08:34;;;;;;;10.63;3.47;;;18.50;99.90;;;;;;4827573;29;20419;-87
2023/07/25 09:11:00;;;;;;;4.93;2.80;;;18.60;99.90;;;;;;4826443;29;20505;-89
2023/07/25 09:13:26;;;;;;;7.83;3.00;;;18.60;99.90;;;;;;4826780;29;20193;-87
2023/07/25 09:15:51;;;;;;;14.10;2.90;;;18.70;99.90;;;;;;4827392;29;20427;-87
2023/07/25 09:18:17;;;;;;;5.77;2.10;;;18.70;99.90;;;;;;4827146;29;20536;-87
2023/07/25 09:20:43;;;;;;;3.70;2.00;;;18.60;99.90;;;;;;4827002;29;20273;-87
2023/07/25 09:23:17;;;;;;;6.90;2.43;;;18.60;99.90;;;;;;4826931;29;20532;-87
2023/07/25 09:25:43;;;;;;;4.60;1.97;;;18.60;99.90;;;;;;4825270;29;20190;-87
2023/07/25 09:28:09;;;;;;;3.43;1.57;;;18.30;99.90;;;;;;4826369;29;20785;-87
2023/07/25 09:30:34;;;;;;;5.90;2.23;;;18.30;99.90;;;;;;4826002;29;20189;-87
2023/07/25 09:33:00;;;;;;;8.00;2.67;;;18.30;99.90;;;;;;4825327;29;20205;-87
2023/07/25 09:35:25;;;;;;;5.17;2.13;;;18.50;99.90;;;;;;4827519;29;20190;-87
2023/07/25 09:37:55;;;;;;;5.80;3.00;;;18.50;99.90;;;;;;4827624;29;20591;-87
2023/07/25 09:40:21;;;;;;;3.90;2.10;;;18.50;99.90;;;;;;4826706;29;20513;-87
2023/07/25 09:42:50;;;;;;;4.77;1.90;;;18.40;99.90;;;;;;4826637;29;20524;-88
2023/07/25 09:45:16;;;;;;;3.60;1.90;;;18.20;99.90;;;;;;4825753;29;20196;-87
2023/07/25 09:47:42;;;;;;;9.43;2.10;;;18.20;99.90;;;;;;4825957;29;20423;-88
2023/07/25 09:50:08;;;;;;;7.20;2.17;;;18.10;99.90;;;;;;4825224;29;20383;-87
2023/07/25 09:52:42;;;;;;;4.80;1.87;;;18.10;99.90;;;;;;4824944;29;20186;-87
2023/07/25 09:55:08;;;;;;;5.37;2.23;;;17.80;99.90;;;;;;4824886;29;20400;-87
2023/07/25 09:57:35;;;;;;;4.90;1.90;;;17.90;99.90;;;;;;4825964;29;20427;-87
2023/07/25 10:00:03;;;;;;;4.03;1.93;;;17.90;99.90;;;;;;4825848;29;20782;-87
2023/07/25 10:02:29;;;;;;;4.40;1.87;;;17.90;99.90;;;;;;4828038;29;20506;-86
2023/07/25 10:04:56;;;;;;;5.70;2.27;;;18.00;99.90;;;;;;4826714;29;20431;-87
2023/07/25 10:07:25;;;;;;;6.40;3.10;;;18.10;99.90;;;;;;4826614;29;20178;-87
2023/07/25 10:09:53;;;;;;;5.30;2.13;;;18.40;99.90;;;;;;4826385;29;20397;-86
2023/07/25 10:12:18;;;;;;;3.17;1.70;;;19.10;99.90;;;;;;4824676;29;20451;-87
2023/07/25 10:14:44;;;;;;;2.37;1.77;;;19.70;99.90;;;;;;4826590;29;20445;-87
2023/07/25 10:17:10;;;;;;;2.20;1.20;;;19.40;99.90;;;;;;4825893;29;20687;-87
2023/07/25 10:20:06;;;;;;;4.23;1.80;;;19.40;99.90;;;;;;4825938;29;20217;-87
2023/07/25 10:22:37;;;;;;;4.10;1.77;;;19.10;99.90;;;;;;4810758;29;20482;-87
2023/07/25 10:25:08;;;;;;;3.80;1.70;;;19.20;99.90;;;;;;4825555;29;20833;-87
2023/07/25 10:27:34;;;;;;;4.50;1.70;;;19.80;99.90;;;;;;4825312;29;20411;-87
2023/07/25 10:30:02;;;;;;;6.90;1.90;;;20.80;99.90;;;;;;4824137;29;20454;-89
2023/07/25 10:32:45;;;;;;;5.57;1.90;;;21.90;99.90;;;;;;4823236;29;20469;-88
2023/07/25 10:35:11;;;;;;;3.57;2.37;;;22.80;99.90;;;;;;4825321;29;20411;-86
2023/07/25 10:37:44;;;;;;;3.13;1.77;;;22.60;99.90;;;;;;4825043;29;20427;-86
2023/07/25 10:40:14;;;;;;;3.57;1.90;;;21.20;99.90;;;;;;4825428;29;20182;-87
2023/07/25 10:42:44;;;;;;;7.07;1.70;;;20.90;99.90;;;;;;4825612;29;20518;-86
2023/07/25 10:45:44;;;;;;;4.07;1.60;;;20.30;99.90;;;;;;4824477;29;20489;-88
2023/07/25 10:48:33;;;;;;;3.60;1.33;;;21.40;99.90;;;;;;4825152;29;20786;-86
2023/07/25 10:51:01;;;;;;;3.10;1.33;;;22.00;99.90;;;;;;4824034;29;20434;-87
2023/07/25 10:53:27;;;;;;;5.03;1.87;;;22.50;99.90;;;;;;4825533;29;20430;-87
2023/07/25 10:56:05;;;;;;;2.77;1.63;;;22.50;99.90;;;;;;4823487;29;20430;-87
2023/07/25 10:58:32;;;;;;;3.20;1.67;;;22.30;99.90;;;;;;4824937;29;20242;-87
2023/07/25 11:00:58;;;;;;;3.57;1.90;;;22.10;99.90;;;;;;4824730;29;20855;-87
2023/07/25 11:03:29;;;;;;;5.33;1.60;;;22.10;99.90;;;;;;4824688;29;20440;-87
2023/07/25 11:06:07;;;;;;;5.10;1.77;;;22.30;99.90;;;;;;4825842;29;20499;-88
2023/07/25 11:08:34;;;;;;;6.50;1.50;;;22.60;99.90;;;;;;4829022;29;20454;-88
2023/07/25 11:11:04;;;;;;;2.40;1.40;;;22.40;99.90;;;;;;4827171;29;20438;-87
2023/07/25 11:13:35;;;;;;;2.43;1.27;;;22.60;99.90;;;;;;4828871;29;20430;-87
2023/07/25 11:16:05;;;;;;;4.20;1.40;;;23.00;99.90;;;;;;4826837;29;20427;-87
2023/07/25 11:18:37;;;;;;;1.93;1.20;;;23.20;99.90;;;;;;4828475;29;20903;-87
2023/07/25 11:21:05;;;;;;;5.17;1.90;;;23.30;99.90;;;;;;4828589;29;20430;-87
2023/07/25 11:23:31;;;;;;;2.00;1.23;;;23.90;99.90;;;;;;4826764;29;20497;-86
2023/07/25 11:25:59;;;;;;;2.83;1.20;;;24.00;99.90;;;;;;4827880;29;20419;-87
2023/07/25 11:28:25;;;;;;;2.30;1.30;;;24.00;99.90;;;;;;4828137;29;20410;-86
2023/07/25 11:30:51;;;;;;;2.87;1.57;;;23.90;99.90;;;;;;4827809;29;20832;-86
2023/07/25 11:33:18;;;;;;;4.47;1.83;;;24.30;99.90;;;;;;4829549;29;20423;-88
2023/07/25 11:35:44;;;;;;;4.17;1.60;;;24.80;99.90;;;;;;4827983;29;20783;-85
2023/07/25 11:38:10;;;;;;;8.20;1.60;;;25.40;99.90;;;;;;4828474;29;20476;-86
2023/07/25 11:40:38;;;;;;;4.30;1.90;;;24.70;99.90;;;;;;4828051;29;20429;-87
2023/07/25 11:43:11;;;;;;;3.97;1.80;;;24.00;99.90;;;;;;4827752;29;20550;-86
2023/07/25 11:45:38;;;;;;;5.53;1.63;;;23.50;99.90;;;;;;4827920;29;20438;-88
2023/07/25 11:48:08;;;;;;;2.13;1.33;;;23.50;99.90;;;;;;4826619;29;20435;-88
2023/07/25 11:50:37;;;;;;;4.13;2.03;;;23.90;99.90;;;;;;4811542;29;20488;-87
2023/07/25 11:53:03;;;;;;;3.23;1.60;;;23.60;99.90;;;;;;4827831;29;20443;-89
2023/07/25 11:55:30;;;;;;;2.47;1.20;;;23.40;99.90;;;;;;4825788;29;20478;-87
2023/07/25 11:57:55;;;;;;;1.90;1.40;;;24.00;99.90;;;;;;4827083;29;20423;-87
2023/07/25 12:00:22;;;;;;;4.43;1.70;;;23.80;99.90;;;;;;4826681;29;20423;-86
2023/07/25 12:02:48;;;;;;;3.50;1.70;;;22.90;99.90;;;;;;4825731;29;20205;-87
2023/07/25 12:05:28;;;;;;;4.77;1.90;;;21.90;99.90;;;;;;4826705;29;20427;-89
2023/07/25 12:08:02;;;;;;;5.70;1.83;;;21.30;99.90;;;;;;4825427;29;20470;-87
2023/07/25 12:10:33;;;;;;;6.50;1.87;;;20.90;99.90;;;;;;4825423;29;20463;-88
2023/07/25 12:13:01;;;;;;;5.77;2.07;;;20.50;99.90;;;;;;4825391;29;20409;-88
2023/07/25 12:15:44;;;;;;;4.70;1.70;;;20.20;99.90;;;;;;4826602;29;20427;-88
2023/07/25 12:18:26;;;;;;;3.70;1.43;;;19.90;99.90;;;;;;4825944;29;20499;-88
2023/07/25 12:20:52;;;;;;;3.87;2.20;;;19.80;99.90;;;;;;4826865;29;20410;-88
2023/07/25 12:23:26;;;;;;;5.27;1.70;;;19.80;99.90;;;;;;4825351;29;20445;-87
2023/07/25 12:25:53;;;;;;;6.90;1.90;;;19.80;99.90;;;;;;4827061;29;20408;-89
2023/07/25 12:28:18;;;;;;;4.07;2.00;;;19.80;99.90;;;;;;4810102;29;20414;-88
2023/07/25 12:30:44;;;;;;;4.93;2.20;;;19.60;99.90;;;;;;4825652;29;20448;-88
2023/07/25 12:33:10;;;;;;;3.87;1.47;;;19.60;99.90;;;;;;4824988;29;20201;-87
2023/07/25 12:35:35;;;;;;;2.93;1.40;;;19.50;99.90;;;;;;4824870;29;20209;-86
2023/07/25 12:38:01;;;;;;;9.10;2.57;;;19.30;99.90;;;;;;4827022;29;20193;-84